KLXN

Jim Kelly Field Airport

Lexington, Nebraska, USA
METAR KLXN 212135Z AUTO 35014G21KT 10SM BKN070 27/12 A2997 RMK AO2 T02660115
Observed Flight Rules
Jun-21 @ 21:35 UTC (32 minutes ago) Visual Flight Rules
Wind Visibility Clouds
350° at 14 knots
 Gusting to 21 knots
10 miles
  • Broken at 7,000' AGL
Temperatures Readings
Current 27°C / 81°F
Dewpoint 12°C / 54°F
Humidity 39%
Altimeter 29.97" Hg
Pressure 1015 hPa
Elevation 734
METAR KLXN 212135Z AUTO 35014G21KT 10SM BKN070 27/12 A2997 RMK AO2 T02660115
Observed Flight Rules
Jun-21 @ 21:35 UTC
(32 minutes ago)
VFR
Wind Visibility
350° at 14 knots
 Gusting to 21 knots
10 miles
Clouds
  • Broken at 7,000' AGL
Temperature Dewpoint
27°C / 81°F 12°C / 54°F
Humidity Altimeter Pressure
39% 29.97" Hg 1015 hPa